Time;durP1;ratioP1;P1;durP2;ratioP2;P2;SDS_P1;SDS_P2;PMS_P1;PMS_P2;Temp;Humidity;BMP_temperature;BMP_pressure;BME280_temperature;BME280_humidity;BME280_pressure;Samples;Min_cycle;Max_cycle;Signal;HPM_P1;HPM_P2
2021/11/12 00:13:27;;;;;;;46.47;22.45;;;;;;;12.33;70.70;102310.13;5021412;28;20046;-71
2021/11/12 00:15:55;;;;;;;48.28;22.40;;;;;;;12.31;70.73;102304.88;5021546;28;20503;-71
2021/11/12 00:18:24;;;;;;;56.88;23.48;;;;;;;12.31;70.45;102307.50;5026117;28;20036;-70
2021/11/12 00:20:51;;;;;;;57.75;23.35;;;;;;;12.31;70.47;102301.38;5043772;28;20041;-71
2021/11/12 00:23:18;;;;;;;56.28;24.33;;;;;;;12.33;70.38;102290.09;5020312;28;20048;-73
2021/11/12 00:25:45;;;;;;;57.63;23.70;;;;;;;12.29;70.03;102295.22;5047937;28;20047;-71
2021/11/12 00:28:12;;;;;;;62.33;25.40;;;;;;;12.27;70.36;102286.41;5033708;28;20459;-70
2021/11/12 00:38:38;;;;;;;62.80;24.35;;;;;;;12.20;69.86;102281.00;5039930;28;20479;-72
2021/11/12 00:43:41;;;;;;;;;;;;;;;12.15;70.10;102273.88;5045065;28;20067;-72
2021/11/12 00:48:56;;;;;;;62.10;22.88;;;;;;;12.17;69.80;102264.38;5042665;28;20173;-70
2021/11/12 00:51:31;;;;;;;56.45;22.50;;;;;;;12.11;69.67;102264.19;5045923;28;20455;-71
2021/11/12 00:54:06;;;;;;;54.17;21.80;;;;;;;12.10;70.19;102265.91;5017561;28;20048;-70
2021/11/12 00:56:32;;;;;;;53.75;21.85;;;;;;;12.06;69.69;102261.44;5038308;28;20048;-70
2021/11/12 00:58:59;;;;;;;50.22;20.92;;;;;;;12.10;69.82;102263.28;5030618;28;20044;-72
2021/11/12 01:01:27;;;;;;;59.30;22.27;;;;;;;12.07;70.24;102264.94;5051217;28;20710;-71
2021/11/12 01:03:53;;;;;;;52.78;20.95;;;;;;;12.02;70.69;102267.41;5021480;28;20032;-71
2021/11/12 01:06:20;;;;;;;48.03;20.80;;;;;;;12.06;70.27;102264.06;5038901;28;20059;-71
2021/11/12 01:08:45;;;;;;;45.65;20.42;;;;;;;12.05;69.94;102256.16;5021303;28;20508;-72
2021/11/12 01:11:12;;;;;;;44.95;20.10;;;;;;;12.06;69.63;102257.94;5043802;28;20048;-70
2021/11/12 01:13:39;;;;;;;44.45;20.10;;;;;;;12.11;69.30;102245.88;5044180;28;20051;-71
2021/11/12 01:16:05;;;;;;;40.78;19.88;;;;;;;12.08;68.91;102249.28;5038096;28;20043;-71
2021/11/12 01:18:34;;;;;;;41.55;20.33;;;;;;;12.05;69.23;102245.72;5038954;28;20051;-71
2021/11/12 01:20:59;;;;;;;40.13;20.05;;;;;;;12.05;68.60;102240.47;5024890;28;20154;-70
2021/11/12 01:23:25;;;;;;;37.72;18.85;;;;;;;12.02;68.58;102243.88;5041185;28;20401;-70
2021/11/12 01:25:50;;;;;;;38.58;18.80;;;;;;;12.03;69.09;102235.19;5047081;28;20052;-70
2021/11/12 01:28:16;;;;;;;38.13;18.58;;;;;;;11.96;68.39;102242.81;5024873;28;20056;-71
2021/11/12 01:30:42;;;;;;;38.80;18.77;;;;;;;11.97;68.72;102234.13;5040575;28;20036;-70
2021/11/12 01:33:07;;;;;;;37.78;18.40;;;;;;;11.88;68.72;102229.53;5047600;28;20622;-71
2021/11/12 01:35:33;;;;;;;35.40;18.27;;;;;;;11.84;69.45;102235.50;5039924;28;20040;-71
2021/11/12 01:37:59;;;;;;;39.42;18.58;;;;;;;11.82;69.57;102231.09;5035942;28;20036;-70
2021/11/12 01:40:26;;;;;;;39.45;18.63;;;;;;;11.77;70.13;102234.44;5044428;28;20102;-70
2021/11/12 01:43:16;;;;;;;35.47;17.13;;;;;;;11.82;69.70;102233.69;5050439;28;20059;-71
2021/11/12 01:51:00;;;;;;;36.03;16.95;;;;;;;11.95;69.35;102231.50;5045079;28;20048;-71
2021/11/12 01:53:32;;;;;;;37.35;17.27;;;;;;;11.95;68.77;102228.88;5040909;28;20054;-71
2021/11/12 02:01:22;;;;;;;40.72;17.58;;;;;;;11.94;70.54;102219.28;5047573;28;20117;-71
2021/11/12 02:03:49;;;;;;;37.22;17.10;;;;;;;11.96;70.40;102224.53;5029374;28;20162;-71
2021/11/12 02:06:18;;;;;;;38.08;17.42;;;;;;;11.96;70.49;102217.56;5027435;28;20048;-72
2021/11/12 02:08:44;;;;;;;41.63;18.17;;;;;;;11.97;70.62;102218.44;5043879;28;20048;-71
2021/11/12 02:11:09;;;;;;;38.90;17.75;;;;;;;12.01;69.84;102215.09;5032615;28;20036;-71
2021/11/12 02:13:35;;;;;;;34.15;17.25;;;;;;;12.02;69.39;102209.91;5047167;28;20032;-70
2021/11/12 02:16:04;;;;;;;35.92;17.58;;;;;;;12.05;69.61;102199.56;5003261;28;20040;-70
2021/11/12 02:18:32;;;;;;;40.08;17.40;;;;;;;12.05;69.98;102193.44;5026738;28;20139;-71
2021/11/12 02:24:05;;;;;;;38.13;17.70;;;;;;;12.03;70.13;102202.94;4996099;28;20072;-70
2021/11/12 02:26:34;;;;;;;38.80;18.08;;;;;;;12.00;70.48;102202.88;5035958;28;20039;-70
2021/11/12 02:29:00;;;;;;;43.25;19.65;;;;;;;11.99;70.61;102188.03;5039953;28;20051;-70
2021/11/12 02:31:27;;;;;;;40.85;19.70;;;;;;;12.00;69.96;102190.69;5036942;28;20114;-70
2021/11/12 02:33:55;;;;;;;43.92;20.10;;;;;;;11.94;70.22;102172.22;5038719;28;20083;-71
2021/11/12 02:36:21;;;;;;;42.35;19.92;;;;;;;11.88;70.19;102163.31;5021638;28;20122;-71
2021/11/12 02:38:49;;;;;;;42.47;20.15;;;;;;;11.89;69.84;102166.00;5034960;28;20473;-70
2021/11/12 02:41:16;;;;;;;40.95;20.65;;;;;;;11.94;69.00;102160.88;5033579;28;20036;-71
2021/11/12 02:43:45;;;;;;;42.55;19.58;;;;;;;11.97;68.64;102166.19;5029260;28;20035;-70
2021/11/12 02:46:13;;;;;;;41.35;20.60;;;;;;;11.96;69.58;102173.13;5021094;28;20050;-70
2021/11/12 02:48:40;;;;;;;41.20;20.38;;;;;;;11.98;69.20;102165.34;5030928;28;20135;-72
2021/11/12 02:51:12;;;;;;;42.47;21.27;;;;;;;11.95;70.00;102160.94;5053237;28;20119;-70
2021/11/12 02:53:39;;;;;;;45.22;21.02;;;;;;;11.90;70.05;102149.44;5051265;28;20257;-70
2021/11/12 02:56:29;;;;;;;43.90;21.25;;;;;;;11.91;70.54;102145.09;5020883;28;20048;-69
2021/11/12 02:59:12;;;;;;;39.78;20.35;;;;;;;11.90;69.87;102140.72;5050414;28;20058;-69
2021/11/12 03:01:43;;;;;;;44.50;20.15;;;;;;;11.88;69.27;102138.09;5027151;28;20108;-71
2021/11/12 03:04:09;;;;;;;44.28;20.80;;;;;;;11.91;69.53;102138.16;5048956;28;20512;-72
2021/11/12 03:06:36;;;;;;;38.63;20.15;;;;;;;11.89;70.09;102131.13;5045613;28;21145;-71
2021/11/12 03:09:06;;;;;;;41.00;20.48;;;;;;;11.83;69.66;102139.69;5032537;28;20044;-72
2021/11/12 03:11:32;;;;;;;37.58;20.45;;;;;;;11.87;69.19;102130.19;5043894;28;20044;-72
2021/11/12 03:13:57;;;;;;;42.13;21.35;;;;;;;11.87;69.62;102123.25;5039176;28;20044;-71
2021/11/12 03:16:23;;;;;;;42.00;20.55;;;;;;;11.82;70.01;102114.41;5055494;28;22659;-69
2021/11/12 03:18:49;;;;;;;41.83;21.13;;;;;;;11.82;68.68;102119.63;5040191;28;20354;-70
2021/11/12 03:21:17;;;;;;;41.22;21.15;;;;;;;11.79;68.55;102109.97;5028345;28;20043;-70
2021/11/12 03:23:59;;;;;;;40.50;20.75;;;;;;;11.87;68.48;102109.28;5037595;28;20044;-71
2021/11/12 03:26:35;;;;;;;40.20;20.20;;;;;;;11.76;68.73;102099.44;5035075;28;20067;-71
2021/11/12 03:56:48;;;;;;;39.22;20.73;;;;;;;11.63;67.82;102044.16;5048494;28;20059;-70
2021/11/12 04:07:07;;;;;;;37.65;20.73;;;;;;;11.46;67.64;102029.75;5049393;28;20459;-71
2021/11/12 04:18:06;;;;;;;35.10;19.77;;;;;;;11.55;67.13;102006.47;5056159;28;20093;-70
2021/11/12 05:09:48;;;;;;;40.13;20.67;;;;;;;10.58;68.84;101992.34;5030273;28;20497;-72
2021/11/12 05:50:17;;;;;;;51.35;25.77;;;;;;;9.22;73.02;101966.81;5032362;28;20537;-70
2021/11/12 05:55:26;;;;;;;53.50;26.43;;;;;;;9.08;73.58;101936.84;5021153;28;20074;-71
2021/11/12 05:57:51;;;;;;;52.22;25.77;;;;;;;9.12;73.59;101920.50;5031628;28;20779;-71
2021/11/12 06:00:18;;;;;;;55.17;27.00;;;;;;;9.16;73.38;101920.66;4996882;28;20518;-72
2021/11/12 06:02:45;;;;;;;54.38;27.30;;;;;;;9.14;73.11;101930.16;5047293;28;20043;-71
2021/11/12 06:05:10;;;;;;;54.00;26.77;;;;;;;9.13;73.19;101935.28;5041885;28;20072;-72
2021/11/12 06:07:36;;;;;;;53.63;27.00;;;;;;;9.06;73.17;101933.28;5017033;28;20104;-71
2021/11/12 06:10:02;;;;;;;55.90;28.35;;;;;;;9.04;72.83;101920.22;5015082;28;20051;-69
2021/11/12 06:12:27;;;;;;;56.72;27.13;;;;;;;9.00;73.32;101917.47;5026302;28;20064;-70
2021/11/12 06:14:53;;;;;;;56.17;26.83;;;;;;;8.94;73.22;101921.63;5035771;28;20036;-70
2021/11/12 06:17:18;;;;;;;55.05;27.38;;;;;;;8.85;73.58;101910.88;5029771;28;20036;-70
2021/11/12 06:19:44;;;;;;;56.22;27.83;;;;;;;8.80;73.62;101904.63;5044702;28;20040;-70
2021/11/12 06:22:10;;;;;;;58.03;29.17;;;;;;;8.69;74.09;101899.84;5006313;28;20451;-71
2021/11/12 06:24:35;;;;;;;63.20;30.45;;;;;;;8.63;74.43;101897.03;5047660;28;20123;-70
2021/11/12 06:27:01;;;;;;;62.95;29.38;;;;;;;8.65;74.31;101900.59;5025141;28;20149;-71
2021/11/12 06:29:26;;;;;;;68.45;31.70;;;;;;;8.55;74.63;101894.13;5031729;28;20067;-71
2021/11/12 06:31:53;;;;;;;72.55;32.53;;;;;;;8.59;74.70;101902.94;5021736;28;20035;-71
2021/11/12 06:34:18;;;;;;;72.75;32.00;;;;;;;8.56;74.80;101906.31;5037383;28;20044;-71
2021/11/12 06:36:44;;;;;;;68.35;32.67;;;;;;;8.54;74.92;101915.75;5026262;28;20070;-71
2021/11/12 06:39:10;;;;;;;68.25;32.85;;;;;;;8.52;74.62;101927.81;5016189;28;20044;-70
2021/11/12 06:49:38;;;;;;;78.68;35.08;;;;;;;8.40;75.12;101907.44;5026308;28;20123;-70
2021/11/12 06:52:05;;;;;;;80.78;36.30;;;;;;;8.41;75.06;101896.22;4997211;28;20062;-71
2021/11/12 06:54:31;;;;;;;72.10;34.78;;;;;;;8.41;75.22;101892.75;5003438;28;20036;-70
2021/11/12 06:56:57;;;;;;;80.18;35.92;;;;;;;8.39;75.44;101895.28;5041161;28;20475;-71
2021/11/12 06:59:23;;;;;;;89.80;37.25;;;;;;;8.41;75.87;101893.63;5040127;28;20101;-72
2021/11/12 07:01:49;;;;;;;81.15;36.15;;;;;;;8.37;75.83;101893.44;5040639;28;20052;-70
2021/11/12 07:04:15;;;;;;;88.82;37.80;;;;;;;8.41;75.41;101901.44;5027995;28;20730;-71
2021/11/12 07:06:41;;;;;;;80.32;35.72;;;;;;;8.41;75.35;101901.44;5037209;28;20493;-71
2021/11/12 07:09:07;;;;;;;85.10;36.63;;;;;;;8.39;75.53;101895.28;5034421;28;20089;-70
2021/11/12 07:11:33;;;;;;;82.85;37.40;;;;;;;8.36;75.53;101889.06;5051396;28;20039;-71
2021/11/12 07:13:59;;;;;;;92.22;37.67;;;;;;;8.37;75.42;101904.72;5008500;28;20048;-71
2021/11/12 07:16:25;;;;;;;88.60;37.30;;;;;;;8.38;75.49;101897.81;5031268;28;20047;-71
2021/11/12 07:18:54;;;;;;;91.65;38.25;;;;;;;8.34;75.90;101902.00;5013291;28;20642;-72
2021/11/12 07:21:22;;;;;;;101.38;39.33;;;;;;;8.38;75.95;101887.41;5027759;28;20032;-71
2021/11/12 07:23:55;;;;;;;94.82;39.22;;;;;;;8.39;75.94;101882.28;5046495;28;20044;-70
2021/11/12 07:26:20;;;;;;;94.60;39.00;;;;;;;8.43;76.15;101878.06;5038400;28;20056;-71
2021/11/12 07:28:48;;;;;;;94.22;39.05;;;;;;;8.50;75.43;101877.47;5053220;28;20811;-71
2021/11/12 07:31:16;;;;;;;91.53;39.42;;;;;;;8.47;75.65;101867.88;5016880;28;20032;-72
2021/11/12 07:33:42;;;;;;;91.97;40.53;;;;;;;8.49;75.64;101858.41;5049542;28;20139;-71
2021/11/12 07:36:23;;;;;;;91.15;41.40;;;;;;;8.42;75.63;101865.91;5031271;28;20044;-70
2021/11/12 07:38:55;;;;;;;89.47;40.58;;;;;;;8.46;75.68;101866.09;5047305;28;20457;-71
2021/11/12 07:41:30;;;;;;;87.70;39.17;;;;;;;8.59;75.06;101858.75;5030200;28;20040;-70
2021/11/12 07:44:21;;;;;;;90.22;38.58;;;;;;;8.63;75.29;101855.44;5029445;28;20143;-70
2021/11/12 07:47:10;;;;;;;87.80;39.00;;;;;;;8.63;75.41;101856.31;5050135;28;20040;-71
2021/11/12 07:49:37;;;;;;;82.55;37.50;;;;;;;8.73;74.44;101862.72;5029783;28;20059;-71
2021/11/12 07:52:04;;;;;;;86.07;37.72;;;;;;;8.83;74.66;101857.94;5039715;28;20036;-71
2021/11/12 07:54:30;;;;;;;90.80;39.28;;;;;;;8.81;74.23;101848.31;5028396;28;20400;-71
2021/11/12 07:56:55;;;;;;;84.00;38.50;;;;;;;8.88;74.13;101847.69;5045268;28;20028;-71
2021/11/12 07:59:20;;;;;;;80.68;40.05;;;;;;;8.98;73.88;101843.69;5041976;28;20828;-71
2021/11/12 08:01:46;;;;;;;85.38;39.45;;;;;;;9.06;73.93;101835.34;5035024;28;20093;-71
2021/11/12 08:04:12;;;;;;;87.05;38.47;;;;;;;9.07;73.36;101837.13;5013918;28;20066;-71
2021/11/12 08:06:38;;;;;;;82.70;38.95;;;;;;;9.15;72.90;101833.03;5021417;28;20041;-71
2021/11/12 08:09:16;;;;;;;84.78;38.65;;;;;;;9.17;73.18;101822.69;5048866;28;20047;-72
2021/11/12 08:14:17;;;;;;;82.43;37.97;;;;;;;9.38;72.58;101818.22;5038342;28;21008;-71
2021/11/12 08:17:00;;;;;;;75.40;37.50;;;;;;;9.27;72.58;101814.38;5029641;28;20067;-72
2021/11/12 08:22:39;;;;;;;77.88;36.63;;;;;;;9.61;72.16;101816.38;5016469;28;20491;-71
2021/11/12 08:40:04;;;;;;;76.43;36.87;;;;;;;9.95;70.77;101794.84;5036615;28;20610;-70
2021/11/12 08:42:41;;;;;;;70.43;35.92;;;;;;;9.93;70.04;101791.34;5035480;28;20372;-70
2021/11/12 08:45:14;;;;;;;76.00;37.80;;;;;;;9.90;71.46;101784.31;5037704;28;20067;-71
2021/11/12 08:47:42;;;;;;;78.82;36.78;;;;;;;10.01;71.06;101790.72;5038887;28;21007;-70
2021/11/12 08:50:15;;;;;;;70.68;36.63;;;;;;;10.05;70.48;101789.09;5031060;28;20455;-71
2021/11/12 08:52:42;;;;;;;78.53;37.38;;;;;;;10.12;69.75;101788.47;5046237;28;20120;-72
2021/11/12 08:55:08;;;;;;;74.78;37.55;;;;;;;10.15;69.58;101785.91;5053342;28;20052;-71
2021/11/12 08:57:34;;;;;;;80.40;38.55;;;;;;;10.21;69.70;101783.53;5024937;28;20619;-71
2021/11/12 09:00:00;;;;;;;76.55;36.60;;;;;;;10.31;69.36;101779.44;5033291;28;20440;-71
2021/11/12 09:02:26;;;;;;;76.85;38.90;;;;;;;10.23;69.79;101788.78;5030766;28;20628;-70
2021/11/12 09:04:53;;;;;;;81.22;38.25;;;;;;;10.32;69.37;101787.31;5038067;28;20154;-72
2021/11/12 09:07:18;;;;;;;77.50;37.42;;;;;;;10.45;68.19;101778.13;5024950;28;20032;-70
2021/11/12 09:09:45;;;;;;;73.88;37.75;;;;;;;10.46;68.73;101769.47;5028243;28;20040;-71
2021/11/12 09:12:13;;;;;;;85.18;38.75;;;;;;;10.43;69.12;101766.81;5023071;28;20131;-70
2021/11/12 09:14:45;;;;;;;93.10;39.80;;;;;;;10.34;68.88;101767.41;5028631;28;20490;-70
2021/11/12 09:17:11;;;;;;;86.65;38.78;;;;;;;10.34;68.33;101764.81;5040020;28;20046;-71
2021/11/12 09:19:45;;;;;;;82.75;37.78;;;;;;;10.47;66.99;101766.03;5032300;28;20047;-71
2021/11/12 09:22:13;;;;;;;88.57;38.72;;;;;;;10.37;67.67;101754.44;5018933;28;20825;-71
2021/11/12 09:24:38;;;;;;;86.13;38.10;;;;;;;10.38;68.15;101757.94;5020408;28;20382;-72
2021/11/12 09:27:04;;;;;;;87.00;37.45;;;;;;;10.31;68.66;101750.78;5037915;28;21600;-72
2021/11/12 09:29:29;;;;;;;84.55;35.50;;;;;;;10.41;67.21;101752.84;5043280;28;20044;-71
2021/11/12 09:31:54;;;;;;;84.43;36.60;;;;;;;10.57;67.18;101747.19;5032986;28;20043;-70
2021/11/12 09:34:20;;;;;;;85.30;35.83;;;;;;;10.68;67.22;101742.25;5040933;28;20216;-72
2021/11/12 09:36:46;;;;;;;83.18;34.95;;;;;;;10.77;66.06;101740.78;5046757;28;20128;-72
2021/11/12 09:39:11;;;;;;;87.13;35.20;;;;;;;10.72;66.45;101738.91;5007773;28;20201;-70
2021/11/12 09:41:37;;;;;;;82.30;34.75;;;;;;;10.79;66.92;101731.28;5048131;28;20522;-71
2021/11/12 09:44:04;;;;;;;76.72;33.90;;;;;;;10.81;66.03;101736.53;5018797;28;21352;-73
2021/11/12 09:46:31;;;;;;;73.28;32.60;;;;;;;10.66;66.76;101733.53;5051261;28;20038;-71
2021/11/12 09:48:59;;;;;;;73.93;32.85;;;;;;;10.90;65.77;101724.63;5019633;28;20032;-70
2021/11/12 09:51:25;;;;;;;77.05;32.97;;;;;;;10.85;66.46;101726.22;5026489;28;20077;-71
2021/11/12 09:53:51;;;;;;;75.47;33.88;;;;;;;10.83;66.71;101719.19;5033440;28;20043;-70
2021/11/12 09:56:16;;;;;;;74.50;33.50;;;;;;;10.67;66.20;101719.66;5042775;28;20117;-71
2021/11/12 09:58:47;;;;;;;72.13;32.58;;;;;;;10.64;66.63;101723.03;5029533;28;20039;-70
2021/11/12 10:01:12;;;;;;;76.60;32.40;;;;;;;10.56;67.30;101725.44;5024274;28;20151;-70
2021/11/12 10:03:47;;;;;;;68.78;32.60;;;;;;;10.61;66.81;101720.38;5045691;28;20481;-70
2021/11/12 10:06:26;;;;;;;74.18;32.75;;;;;;;10.61;67.34;101717.78;5033994;28;20570;-69
2021/11/12 10:08:53;;;;;;;67.75;32.13;;;;;;;10.66;67.61;101712.66;5035636;28;20032;-71
2021/11/12 10:11:30;;;;;;;70.13;31.45;;;;;;;10.63;66.71;101708.25;5028792;28;20040;-72
2021/11/12 10:14:00;;;;;;;66.32;30.90;;;;;;;10.40;67.12;101697.19;5030198;28;20077;-70
2021/11/12 10:16:37;;;;;;;74.15;30.65;;;;;;;10.68;66.88;101693.59;5043986;28;20506;-71
2021/11/12 10:19:21;;;;;;;69.03;31.33;;;;;;;10.89;66.47;101695.88;5036350;28;20705;-70
2021/11/12 10:21:51;;;;;;;61.38;30.58;;;;;;;11.07;66.15;101692.84;5043894;28;20687;-70
2021/11/12 10:24:28;;;;;;;64.38;29.27;;;;;;;11.05;65.33;101686.69;5032252;28;20163;-71
2021/11/12 10:27:20;;;;;;;57.42;28.50;;;;;;;10.93;65.62;101689.88;5039705;28;20041;-70
2021/11/12 10:29:52;;;;;;;59.45;28.80;;;;;;;10.96;65.65;101682.16;5021326;28;20332;-70
2021/11/12 10:32:26;;;;;;;56.70;27.52;;;;;;;11.05;65.51;101678.84;5017879;28;20032;-71
2021/11/12 10:34:56;;;;;;;54.75;27.50;;;;;;;11.12;65.81;101680.78;5026404;28;20113;-69
2021/11/12 10:37:25;;;;;;;56.15;28.55;;;;;;;11.17;65.26;101671.31;5003890;28;20067;-68
2021/11/12 10:40:03;;;;;;;53.53;26.38;;;;;;;11.25;64.36;101665.44;5041921;28;20072;-72
2021/11/12 10:42:33;;;;;;;55.38;27.55;;;;;;;11.23;65.23;101666.25;5040447;28;20039;-71
2021/11/12 10:45:01;;;;;;;52.92;26.85;;;;;;;11.36;64.95;101656.13;5016740;28;20154;-71
2021/11/12 10:47:29;;;;;;;55.75;26.88;;;;;;;11.62;63.96;101654.09;5027687;28;20719;-70
2021/11/12 10:50:06;;;;;;;45.67;25.75;;;;;;;11.63;63.04;101644.53;5020045;28;20748;-71
2021/11/12 10:52:32;;;;;;;50.33;26.77;;;;;;;11.76;62.43;101637.03;5021014;28;20063;-72
2021/11/12 10:55:14;;;;;;;50.60;26.70;;;;;;;12.03;63.14;101626.22;5031701;28;20040;-71
2021/11/12 10:57:47;;;;;;;50.47;27.38;;;;;;;11.97;63.03;101617.38;5016048;28;20492;-71
2021/11/12 11:00:17;;;;;;;50.95;27.27;;;;;;;12.09;61.86;101613.28;5045895;28;20554;-71
2021/11/12 11:02:49;;;;;;;52.40;27.75;;;;;;;12.13;62.63;101616.84;5038517;28;20036;-70
2021/11/12 11:05:29;;;;;;;55.30;26.38;;;;;;;12.16;61.40;101601.19;5041563;28;20780;-70
2021/11/12 11:08:01;;;;;;;54.72;26.90;;;;;;;12.19;62.19;101606.50;5043876;28;20146;-71
2021/11/12 11:10:39;;;;;;;57.47;28.10;;;;;;;12.38;60.83;101605.94;5023740;28;20302;-70
2021/11/12 11:13:12;;;;;;;51.60;27.13;;;;;;;12.43;59.87;101596.47;5011842;28;20056;-70
2021/11/12 11:15:42;;;;;;;52.80;27.33;;;;;;;12.27;62.04;101590.94;5024071;28;20378;-70
2021/11/12 11:18:20;;;;;;;53.70;27.48;;;;;;;12.47;60.91;101576.47;5045970;28;20052;-72
2021/11/12 11:23:41;;;;;;;46.85;25.92;;;;;;;12.18;60.99;101579.47;5040238;28;20051;-70
2021/11/12 11:26:06;;;;;;;49.13;26.35;;;;;;;12.13;61.48;101567.19;5025885;28;20063;-70
2021/11/12 11:28:35;;;;;;;51.38;27.52;;;;;;;12.09;62.35;101563.63;5034050;28;20656;-71
2021/11/12 11:31:07;;;;;;;50.25;26.50;;;;;;;11.88;63.10;101555.41;5028461;28;20575;-71
2021/11/12 11:33:34;;;;;;;52.30;27.45;;;;;;;11.95;63.20;101556.38;5033885;28;20071;-71
2021/11/12 11:36:01;;;;;;;51.03;26.05;;;;;;;12.06;62.61;101550.50;5020729;28;20544;-72
2021/11/12 11:38:29;;;;;;;50.10;26.73;;;;;;;12.08;63.32;101537.44;5024781;28;20578;-70
2021/11/12 11:40:55;;;;;;;53.00;26.10;;;;;;;12.22;62.80;101550.75;5037964;28;20894;-70
2021/11/12 11:43:23;;;;;;;45.95;26.08;;;;;;;12.23;62.09;101544.69;5037577;28;20040;-70
2021/11/12 11:45:50;;;;;;;46.58;25.88;;;;;;;12.18;62.00;101539.38;5041919;28;20081;-71
2021/11/12 11:48:19;;;;;;;46.40;25.42;;;;;;;12.21;61.38;101526.34;5018675;28;20047;-70
2021/11/12 11:50:56;;;;;;;45.42;25.73;;;;;;;11.97;62.83;101524.19;5008043;28;20041;-71
2021/11/12 11:53:23;;;;;;;50.40;25.35;;;;;;;12.09;62.34;101513.94;5034247;28;20044;-72
2021/11/12 11:55:49;;;;;;;46.80;24.92;;;;;;;12.24;62.14;101517.69;5045235;28;20036;-72
2021/11/12 11:58:36;;;;;;;43.47;24.67;;;;;;;12.08;61.93;101506.06;5050008;28;20036;-71
2021/11/12 12:01:22;;;;;;;45.85;24.85;;;;;;;12.30;62.11;101508.22;5021490;28;20052;-71
2021/11/12 12:04:10;;;;;;;50.30;25.50;;;;;;;12.03;63.38;101510.34;5042314;28;20442;-71
2021/11/12 12:06:36;;;;;;;47.75;24.85;;;;;;;12.04;62.25;101507.78;5040134;28;20366;-71
2021/11/12 12:09:14;;;;;;;44.85;24.65;;;;;;;12.10;62.08;101507.00;5023023;28;20523;-72
2021/11/12 12:11:51;;;;;;;44.22;24.83;;;;;;;12.00;62.08;101503.34;5048079;28;20044;-71
2021/11/12 12:14:24;;;;;;;43.60;24.23;;;;;;;11.94;63.06;101497.13;5041281;28;20059;-71
2021/11/12 12:17:11;;;;;;;45.75;24.88;;;;;;;12.03;63.31;101492.94;5032982;28;20050;-70
2021/11/12 12:19:54;;;;;;;46.08;24.10;;;;;;;11.90;62.91;101492.69;5019540;28;20080;-72
2021/11/12 13:25:35;;;;;;;48.67;24.13;;;;;;;12.17;63.58;101363.38;5023547;28;20036;-71
2021/11/12 13:28:11;;;;;;;46.70;24.33;;;;;;;12.21;62.84;101356.44;4996494;28;20043;-71
2021/11/12 13:30:37;;;;;;;42.72;23.25;;;;;;;12.33;62.57;101360.97;5021394;28;20498;-72
2021/11/12 13:33:04;;;;;;;43.22;23.30;;;;;;;12.44;62.21;101362.84;5002160;28;20087;-69
2021/11/12 13:35:33;;;;;;;44.20;21.92;;;;;;;12.28;61.86;101354.78;5015350;28;20052;-70
2021/11/12 13:37:59;;;;;;;38.45;22.52;;;;;;;12.39;62.28;101345.34;5016849;28;20036;-71
2021/11/12 13:40:29;;;;;;;41.45;22.02;;;;;;;12.44;62.34;101348.94;5004432;28;20044;-71
2021/11/12 13:42:54;;;;;;;37.38;21.95;;;;;;;12.55;61.83;101339.47;5012941;28;20036;-70
2021/11/12 13:45:23;;;;;;;40.03;21.65;;;;;;;12.61;61.17;101342.19;5002381;28;20028;-70
2021/11/12 13:48:11;;;;;;;41.08;22.15;;;;;;;12.48;62.12;101337.66;5025382;28;20505;-71
2021/11/12 13:50:39;;;;;;;39.13;21.55;;;;;;;12.62;62.42;101337.81;4998282;28;20056;-71
2021/11/12 13:53:05;;;;;;;43.33;21.63;;;;;;;12.42;62.40;101320.13;5001926;28;20059;-70
2021/11/12 13:55:35;;;;;;;36.38;20.48;;;;;;;12.56;61.52;101325.56;5025255;28;20040;-70
2021/11/12 13:58:02;;;;;;;33.67;19.73;;;;;;;12.60;60.82;101325.59;5023566;28;20700;-72
2021/11/12 14:00:29;;;;;;;33.13;19.63;;;;;;;12.63;60.78;101316.00;5007482;28;20043;-74
2021/11/12 14:03:04;;;;;;;37.58;20.52;;;;;;;12.56;62.14;101315.09;5011781;28;20450;-73
2021/11/12 14:05:31;;;;;;;40.55;20.80;;;;;;;12.33;61.82;101320.00;5016754;28;20043;-74
2021/11/12 14:08:05;;;;;;;34.08;19.83;;;;;;;12.55;60.82;101324.66;5022550;28;20044;-72
2021/11/12 14:10:36;;;;;;;36.45;20.00;;;;;;;12.61;61.35;101329.09;5007929;28;20091;-71
2021/11/12 14:13:05;;;;;;;36.22;19.50;;;;;;;12.58;61.30;101322.06;5003425;28;20056;-71
2021/11/12 14:15:39;;;;;;;36.72;19.67;;;;;;;12.54;61.82;101328.16;5014561;28;20116;-70
2021/11/12 14:21:13;;;;;;;34.03;18.70;;;;;;;12.55;61.32;101308.97;4995841;28;20043;-72
2021/11/12 14:24:20;;;;;;;34.60;18.55;;;;;;;12.58;60.57;101306.38;5026102;28;20047;-71
2021/11/12 14:29:46;;;;;;;37.28;19.92;;;;;;;12.49;61.63;101298.44;5018622;28;20113;-71
2021/11/12 14:35:33;;;;;;;36.10;18.42;;;;;;;12.39;62.97;101285.22;5030119;28;20056;-71
2021/11/12 14:54:45;;;;;;;29.98;15.68;;;;;;;12.36;61.39;101293.91;5053240;28;20039;-70
2021/11/12 14:57:29;;;;;;;29.20;14.90;;;;;;;12.41;61.69;101291.34;5038482;28;20501;-71
2021/11/12 15:00:01;;;;;;;30.52;15.65;;;;;;;12.41;62.25;101278.28;5028869;28;20046;-71
2021/11/12 15:02:28;;;;;;;28.00;15.95;;;;;;;12.41;62.36;101281.78;5013982;28;20037;-71
2021/11/12 15:04:54;;;;;;;27.60;14.65;;;;;;;12.43;61.59;101279.19;5014218;28;20040;-71
2021/11/12 15:07:25;;;;;;;30.33;15.50;;;;;;;12.35;62.69;101271.25;5038606;28;20123;-71
2021/11/12 15:09:50;;;;;;;26.38;14.57;;;;;;;12.38;62.08;101271.25;5013087;28;21471;-71
2021/11/12 15:12:16;;;;;;;24.60;13.05;;;;;;;12.40;62.25;101263.44;5025309;28;20042;-71
2021/11/12 15:14:54;;;;;;;28.20;14.73;;;;;;;12.28;61.62;101271.13;5037209;28;20514;-72
2021/11/12 15:17:19;;;;;;;25.77;13.93;;;;;;;12.34;61.69;101266.84;5039575;28;20119;-71
2021/11/12 15:19:47;;;;;;;27.63;14.55;;;;;;;12.32;62.64;101260.72;5050586;28;20182;-71
2021/11/12 15:22:34;;;;;;;26.83;13.60;;;;;;;12.39;62.49;101259.06;5049186;28;20063;-69
2021/11/12 15:30:10;;;;;;;;;;;;;;;12.49;61.65;101260.94;5040483;28;20056;-71
2021/11/12 15:32:40;;;;;;;26.05;12.85;;;;;;;12.54;61.16;101262.75;5044717;28;19912;-71
2021/11/12 15:35:41;;;;;;;24.90;13.68;;;;;;;12.52;61.70;101254.00;5018357;28;20606;-71
2021/11/12 15:40:36;;;;;;;20.58;12.00;;;;;;;12.64;61.87;101239.31;5034281;28;20578;-71
2021/11/12 16:27:25;;;;;;;20.42;10.93;;;;;;;12.69;59.45;101212.31;5008450;28;20044;-70
2021/11/12 16:29:54;;;;;;;20.27;10.68;;;;;;;12.66;58.49;101208.81;5021343;28;20033;-70
2021/11/12 16:35:18;;;;;;;20.95;10.45;;;;;;;12.65;59.58;101205.31;4994216;28;20516;-69
2021/11/12 16:37:46;;;;;;;19.70;10.80;;;;;;;12.60;59.65;101213.13;5008892;28;20044;-70
2021/11/12 16:50:58;;;;;;;21.58;11.88;;;;;;;12.59;61.09;101205.25;5004055;28;20044;-71
2021/11/12 16:59:00;;;;;;;20.35;11.88;;;;;;;12.45;61.70;101189.41;5002281;28;20068;-70
2021/11/12 17:09:27;;;;;;;20.92;12.15;;;;;;;12.28;63.02;101170.06;5012049;28;20226;-71
2021/11/12 17:12:03;;;;;;;19.48;12.07;;;;;;;12.31;62.92;101177.06;5019223;28;20079;-69
2021/11/12 17:20:03;;;;;;;23.02;12.25;;;;;;;12.12;63.34;101179.47;5007117;28;20537;-70
2021/11/12 17:22:59;;;;;;;21.70;11.82;;;;;;;11.99;64.04;101181.91;5018234;28;20044;-70
2021/11/12 17:47:13;;;;;;;23.65;12.82;;;;;;;12.06;62.86;101178.53;5030504;28;20043;-67
2021/11/12 17:49:54;;;;;;;24.00;14.13;;;;;;;12.10;62.92;101178.56;5023840;28;20040;-69
2021/11/12 17:53:15;;;;;;;25.23;13.90;;;;;;;12.13;62.80;101175.13;5030516;28;20505;-71
2021/11/12 18:03:29;;;;;;;23.23;14.23;;;;;;;11.75;64.72;101166.81;5023735;28;20067;-70
2021/11/12 18:06:03;;;;;;;29.55;15.32;;;;;;;11.76;64.77;101164.22;5022423;28;20040;-70
2021/11/12 21:45:54;;;;;;;37.88;19.15;;;;;;;11.97;74.60;100998.09;5048959;28;20036;-72
2021/11/12 21:48:21;;;;;;;37.80;19.17;;;;;;;12.03;74.57;100999.03;5044448;28;20593;-72
2021/11/12 21:50:51;;;;;;;34.10;19.45;;;;;;;11.97;74.85;101000.72;5017809;28;20100;-74